createdAt,value
2017-12-16T00:00:15.163Z,56.30
2017-12-16T00:02:43.757Z,55.80
2017-12-16T00:05:12.182Z,55.50
2017-12-16T00:07:40.648Z,53.50
2017-12-16T00:10:24.351Z,53.30
2017-12-16T00:12:52.827Z,53.20
2017-12-16T00:15:21.230Z,53.40
2017-12-16T00:17:50.862Z,53.30
2017-12-16T00:20:19.402Z,53.50
2017-12-16T00:22:47.980Z,54.00
2017-12-16T00:25:16.444Z,53.20
2017-12-16T00:27:52.801Z,53.00
2017-12-16T00:30:36.528Z,53.00
2017-12-16T00:33:05.730Z,52.70
2017-12-16T00:35:34.344Z,52.70
2017-12-16T00:38:02.820Z,52.50
2017-12-16T00:40:38.939Z,52.40
2017-12-16T00:43:07.477Z,52.00
2017-12-16T00:45:35.946Z,52.00
2017-12-16T00:48:04.362Z,51.70
2017-12-16T00:50:33.106Z,51.80
2017-12-16T00:53:01.640Z,51.50
2017-12-16T00:55:30.992Z,50.30
2017-12-16T00:57:59.582Z,50.30
2017-12-16T01:00:27.965Z,49.70
2017-12-16T01:02:58.351Z,49.80
2017-12-16T01:05:26.904Z,49.80
2017-12-16T01:07:58.254Z,49.70
2017-12-16T01:10:29.423Z,49.40
2017-12-16T01:12:58.912Z,49.30
2017-12-16T01:15:28.304Z,49.40
2017-12-16T01:17:58.153Z,49.60
2017-12-16T01:20:27.370Z,49.80
2017-12-16T01:22:55.969Z,49.70
2017-12-16T01:25:28.026Z,50.20
2017-12-16T01:28:07.921Z,50.20
2017-12-16T01:30:36.399Z,50.30
2017-12-16T01:33:04.884Z,50.70
2017-12-16T01:35:48.214Z,50.70
2017-12-16T01:38:44.240Z,51.20
2017-12-16T01:41:13.379Z,51.70
2017-12-16T01:43:49.644Z,51.40
2017-12-16T01:46:18.130Z,51.60
2017-12-16T01:48:46.607Z,51.30
2017-12-16T01:51:15.708Z,51.60
2017-12-16T01:53:44.286Z,51.80
2017-12-16T01:56:14.734Z,52.10
2017-12-16T01:58:43.292Z,53.10
2017-12-16T02:01:11.879Z,53.40
2017-12-16T02:03:40.461Z,53.50
2017-12-16T02:06:09.046Z,53.50
2017-12-16T02:08:37.633Z,53.70
2017-12-16T02:11:06.138Z,53.70
2017-12-16T02:13:34.767Z,53.70
2017-12-16T02:16:04.099Z,53.90
2017-12-16T02:18:33.188Z,54.00
2017-12-16T02:21:01.779Z,54.10
2017-12-16T02:23:32.818Z,54.10
2017-12-16T02:26:01.504Z,54.70
2017-12-16T02:28:30.025Z,54.80
2017-12-16T02:31:00.103Z,54.70
2017-12-16T02:33:28.710Z,54.70
2017-12-16T02:35:58.794Z,54.60
2017-12-16T02:38:27.389Z,54.50
2017-12-16T02:40:55.975Z,54.30
2017-12-16T02:43:24.413Z,54.40
2017-12-16T02:45:53.600Z,54.50
2017-12-16T02:48:23.052Z,54.70
2017-12-16T02:50:51.835Z,54.30
2017-12-16T02:53:20.368Z,54.20
2017-12-16T02:55:49.041Z,53.80
2017-12-16T02:58:17.511Z,53.60
2017-12-16T03:01:00.770Z,53.80
2017-12-16T03:03:38.032Z,54.30
2017-12-16T03:06:11.395Z,54.30
2017-12-16T03:08:40.080Z,54.30
2017-12-16T03:11:08.760Z,54.10
2017-12-16T03:13:37.272Z,54.30
2017-12-16T03:16:05.934Z,54.50
2017-12-16T03:18:34.511Z,54.50
2017-12-16T03:21:03.095Z,54.50
2017-12-16T03:23:31.679Z,54.30
2017-12-16T03:26:08.827Z,54.30
2017-12-16T03:28:38.174Z,54.30
2017-12-16T03:31:06.624Z,54.00
2017-12-16T03:33:35.334Z,54.00
2017-12-16T03:36:09.968Z,54.00
2017-12-16T03:38:38.437Z,54.00
2017-12-16T03:41:08.182Z,54.20
2017-12-16T03:43:43.688Z,54.20
2017-12-16T03:46:12.275Z,54.20
2017-12-16T03:48:40.865Z,54.20
2017-12-16T03:51:09.441Z,54.00
2017-12-16T03:53:38.742Z,53.90
2017-12-16T03:56:08.346Z,53.80
2017-12-16T03:58:36.859Z,53.10
2017-12-16T04:01:05.614Z,52.90
2017-12-16T04:03:34.203Z,52.50
2017-12-16T04:06:02.781Z,52.90
2017-12-16T04:08:31.367Z,53.00
2017-12-16T04:10:59.949Z,53.40
2017-12-16T04:13:35.344Z,53.30
2017-12-16T04:16:03.974Z,53.20
2017-12-16T04:18:32.659Z,53.10
2017-12-16T04:21:01.152Z,53.60
2017-12-16T04:23:29.723Z,53.90
2017-12-16T04:25:59.179Z,54.00
2017-12-16T04:28:28.529Z,55.00
2017-12-16T04:30:57.110Z,54.30
2017-12-16T04:33:25.551Z,54.30
2017-12-16T04:35:54.894Z,54.60
2017-12-16T04:38:29.721Z,55.10
2017-12-16T04:40:59.328Z,55.40
2017-12-16T04:43:29.242Z,55.00
2017-12-16T04:45:57.828Z,55.40
2017-12-16T04:48:26.407Z,55.90
2017-12-16T04:51:00.905Z,55.80
2017-12-16T04:53:32.073Z,55.40
2017-12-16T04:56:00.668Z,55.30
2017-12-16T04:58:35.521Z,54.80
2017-12-16T05:03:59.532Z,54.40
2017-12-16T05:06:29.706Z,54.80
2017-12-16T05:09:02.180Z,54.80
2017-12-16T05:11:30.806Z,54.80
2017-12-16T05:14:00.369Z,55.90
2017-12-16T05:16:28.968Z,55.40
2017-12-16T05:18:57.450Z,55.40
2017-12-16T05:21:25.946Z,55.70
2017-12-16T05:23:54.599Z,55.90
2017-12-16T05:26:23.069Z,56.30
2017-12-16T05:28:51.569Z,56.80
2017-12-16T05:31:20.133Z,57.30
2017-12-16T05:33:48.607Z,57.20
2017-12-16T05:36:17.076Z,57.30
2017-12-16T05:38:46.325Z,57.10
2017-12-16T05:41:14.778Z,57.10
2017-12-16T05:43:43.272Z,56.70
2017-12-16T05:46:12.077Z,56.60
2017-12-16T05:48:40.758Z,56.50
2017-12-16T05:51:09.845Z,56.20
2017-12-16T05:53:40.468Z,56.00
2017-12-16T05:56:09.046Z,56.00
2017-12-16T05:58:37.646Z,56.00
2017-12-16T06:01:06.116Z,55.70
2017-12-16T06:03:34.545Z,55.50
2017-12-16T06:06:03.027Z,55.60
2017-12-16T06:08:36.396Z,56.10
2017-12-16T06:11:05.624Z,56.10
2017-12-16T06:13:34.889Z,56.50
2017-12-16T06:16:03.365Z,56.50
2017-12-16T06:18:31.834Z,56.60
2017-12-16T06:21:00.850Z,56.70
2017-12-16T06:23:31.331Z,56.70
2017-12-16T06:25:59.869Z,56.60
2017-12-16T06:28:29.698Z,57.00
2017-12-16T06:30:58.695Z,57.00
2017-12-16T06:33:27.978Z,57.10
2017-12-16T06:35:56.522Z,57.10
2017-12-16T06:38:25.769Z,57.30
2017-12-16T06:40:55.119Z,57.80
2017-12-16T06:43:30.056Z,57.80
2017-12-16T06:45:58.558Z,58.00
2017-12-16T06:48:26.998Z,58.10
2017-12-16T06:50:55.469Z,58.80
2017-12-16T06:53:24.768Z,58.30
2017-12-16T06:56:07.266Z,58.60
2017-12-16T06:58:36.485Z,58.30
2017-12-16T07:01:04.939Z,58.20
2017-12-16T07:03:34.480Z,58.40
2017-12-16T07:06:02.882Z,58.40
2017-12-16T07:08:31.454Z,58.20
2017-12-16T07:10:59.983Z,58.40
2017-12-16T07:13:30.967Z,58.60
2017-12-16T07:15:59.556Z,58.60
2017-12-16T07:18:27.994Z,58.80
2017-12-16T07:21:17.280Z,58.30
2017-12-16T07:23:45.748Z,58.30
2017-12-16T07:26:14.968Z,56.80
2017-12-16T07:28:43.384Z,56.80
2017-12-16T07:31:11.892Z,56.00
2017-12-16T07:33:41.136Z,54.90
2017-12-16T07:36:23.562Z,54.80
2017-12-16T07:38:51.947Z,54.30
2017-12-16T07:41:20.321Z,53.20
2017-12-16T07:43:52.604Z,52.40
2017-12-16T07:46:21.048Z,51.30
2017-12-16T07:48:50.165Z,50.50
2017-12-16T07:51:19.464Z,50.00
2017-12-16T07:53:54.017Z,49.00
2017-12-16T07:56:22.397Z,48.70
2017-12-16T07:58:50.799Z,49.00
2017-12-16T08:01:20.023Z,46.50
2017-12-16T08:03:48.487Z,46.50
2017-12-16T08:06:17.090Z,45.50
2017-12-16T08:08:47.101Z,46.50
2017-12-16T08:11:15.499Z,47.10
2017-12-16T08:13:43.905Z,46.20
2017-12-16T08:16:12.446Z,45.50
2017-12-16T08:18:41.027Z,44.10
2017-12-16T08:21:09.429Z,42.70
2017-12-16T08:23:37.846Z,43.50
2017-12-16T08:26:07.204Z,43.60
2017-12-16T08:28:42.453Z,43.60
2017-12-16T08:31:10.836Z,44.80
2017-12-16T08:33:39.205Z,43.30
2017-12-16T08:36:19.987Z,42.70
2017-12-16T08:38:48.387Z,43.70
2017-12-16T08:41:17.488Z,44.30
2017-12-16T08:43:46.621Z,44.50
2017-12-16T08:46:14.976Z,44.50
2017-12-16T08:48:44.549Z,44.00
2017-12-16T08:51:14.142Z,43.90
2017-12-16T08:53:43.149Z,44.60
2017-12-16T08:56:12.550Z,46.00
2017-12-16T08:58:41.310Z,46.10
2017-12-16T09:01:10.384Z,45.10
2017-12-16T09:03:46.524Z,45.20
2017-12-16T09:06:17.487Z,42.30
2017-12-16T09:08:50.981Z,42.30
2017-12-16T09:11:19.671Z,42.20
2017-12-16T09:13:55.843Z,41.40
2017-12-16T09:16:24.884Z,42.20
2017-12-16T09:18:54.432Z,41.40
2017-12-16T09:21:23.257Z,40.70
2017-12-16T09:23:52.429Z,41.50
2017-12-16T09:26:20.955Z,41.40
2017-12-16T09:28:50.122Z,42.50
2017-12-16T09:31:18.746Z,42.40
2017-12-16T09:33:47.960Z,43.40
2017-12-16T09:36:25.539Z,43.40
2017-12-16T09:38:54.856Z,43.50
2017-12-16T09:41:24.119Z,42.50
2017-12-16T09:43:52.579Z,42.50
2017-12-16T09:46:21.803Z,41.10
2017-12-16T09:48:51.590Z,40.70
2017-12-16T09:51:20.146Z,40.70
2017-12-16T09:53:48.942Z,40.00
2017-12-16T09:56:17.408Z,41.40
2017-12-16T09:58:45.843Z,40.00
2017-12-16T10:01:15.091Z,43.00
2017-12-16T10:03:46.923Z,43.00
2017-12-16T10:06:28.117Z,41.30
2017-12-16T10:09:04.403Z,41.30
2017-12-16T10:11:33.414Z,40.70
2017-12-16T10:14:01.989Z,39.40
2017-12-16T10:16:31.175Z,36.90
2017-12-16T10:19:01.490Z,36.30
2017-12-16T10:21:30.187Z,36.60
2017-12-16T10:24:00.810Z,38.90
2017-12-16T10:26:33.916Z,38.70
2017-12-16T10:29:02.385Z,37.20
2017-12-16T10:31:30.864Z,37.50
2017-12-16T10:33:59.449Z,38.50
2017-12-16T10:36:28.135Z,38.20
2017-12-16T10:38:56.629Z,40.30
2017-12-16T10:41:25.125Z,39.40
2017-12-16T10:43:53.619Z,39.30
2017-12-16T10:46:22.533Z,38.90
2017-12-16T10:48:51.865Z,40.00
2017-12-16T10:51:20.404Z,40.00
2017-12-16T10:53:49.177Z,40.40
2017-12-16T10:56:18.266Z,39.40
2017-12-16T10:58:47.100Z,38.00
2017-12-16T11:01:27.822Z,38.20
2017-12-16T11:03:56.350Z,39.00
2017-12-16T11:06:25.372Z,37.30
2017-12-16T11:08:54.482Z,36.60
2017-12-16T11:11:23.267Z,37.70
2017-12-16T11:13:51.855Z,37.70
2017-12-16T11:16:20.522Z,37.50
2017-12-16T11:18:49.151Z,35.80
2017-12-16T11:21:18.809Z,34.30
2017-12-16T11:23:47.308Z,32.70
2017-12-16T11:26:16.419Z,30.60
2017-12-16T11:28:44.878Z,29.10
2017-12-16T11:31:13.537Z,28.10
2017-12-16T11:33:44.172Z,29.40
2017-12-16T11:36:13.577Z,29.20
2017-12-16T11:38:57.771Z,29.30
2017-12-16T11:41:29.217Z,29.30
2017-12-16T11:44:06.936Z,29.70
2017-12-16T11:46:47.417Z,27.80
2017-12-16T11:49:17.326Z,29.50
2017-12-16T11:51:46.423Z,29.50
2017-12-16T11:54:18.200Z,28.20
2017-12-16T11:56:50.936Z,27.50
2017-12-16T11:59:25.855Z,27.50
2017-12-16T12:01:56.682Z,26.40
2017-12-16T12:04:26.248Z,28.10
2017-12-16T12:06:56.860Z,27.30
2017-12-16T12:09:27.918Z,24.70
2017-12-16T12:11:59.145Z,23.10
2017-12-16T12:14:30.271Z,23.00
2017-12-16T12:17:02.234Z,22.30
2017-12-16T12:19:33.806Z,21.70
2017-12-16T12:22:02.860Z,21.60
2017-12-16T12:24:32.054Z,23.50
2017-12-16T12:27:01.924Z,26.40
2017-12-16T12:29:33.855Z,24.60
2017-12-16T12:32:05.502Z,23.50
2017-12-16T12:34:34.957Z,23.40
2017-12-16T12:37:04.352Z,22.60
2017-12-16T12:39:33.643Z,22.80
2017-12-16T12:42:05.026Z,22.90
2017-12-16T12:44:36.012Z,22.90
2017-12-16T12:47:10.001Z,22.30
2017-12-16T12:49:39.606Z,23.20
2017-12-16T12:52:10.574Z,21.90
2017-12-16T12:54:40.235Z,22.00
2017-12-16T12:57:09.508Z,21.70
2017-12-16T12:59:53.119Z,21.10
2017-12-16T13:02:33.290Z,21.00
2017-12-16T13:05:06.987Z,20.70
2017-12-16T13:07:37.921Z,22.70
2017-12-16T13:10:07.256Z,22.70
2017-12-16T13:12:37.940Z,22.40
2017-12-16T13:15:08.915Z,21.30
2017-12-16T13:17:39.620Z,20.80
2017-12-16T13:20:17.210Z,20.70
2017-12-16T13:22:46.512Z,21.60
2017-12-16T13:25:16.171Z,20.80
2017-12-16T13:27:45.401Z,20.80
2017-12-16T13:30:14.885Z,19.10
2017-12-16T13:32:45.630Z,18.40
2017-12-16T13:35:16.020Z,18.30
2017-12-16T13:37:45.789Z,17.70
2017-12-16T13:40:17.949Z,18.00
2017-12-16T13:42:51.410Z,18.90
2017-12-16T13:45:20.901Z,18.90
2017-12-16T13:47:51.335Z,18.90
2017-12-16T13:50:21.065Z,18.80
2017-12-16T13:52:51.891Z,19.90
2017-12-16T13:55:21.473Z,20.00
2017-12-16T13:57:51.012Z,20.00
2017-12-16T14:00:22.129Z,21.30
2017-12-16T14:02:53.140Z,21.30
2017-12-16T14:05:23.282Z,22.30
2017-12-16T14:07:54.637Z,21.80
2017-12-16T14:10:25.602Z,21.10
2017-12-16T14:12:55.527Z,20.10
2017-12-16T14:15:24.980Z,20.10
2017-12-16T14:17:53.798Z,19.90
2017-12-16T14:20:27.427Z,21.00
2017-12-16T14:22:57.374Z,19.90
2017-12-16T14:25:26.906Z,20.00
2017-12-16T14:27:58.991Z,20.40
2017-12-16T14:30:41.492Z,19.50
2017-12-16T14:33:12.127Z,19.40
2017-12-16T14:35:40.945Z,19.70
2017-12-16T14:38:11.791Z,20.50
2017-12-16T14:40:41.075Z,20.40
2017-12-16T14:43:10.515Z,20.70
2017-12-16T14:45:39.826Z,20.60
2017-12-16T14:48:08.572Z,21.70
2017-12-16T14:50:37.333Z,23.30
2017-12-16T14:53:06.526Z,23.60
2017-12-16T14:55:48.153Z,25.50
2017-12-16T14:58:17.327Z,25.50
2017-12-16T15:00:47.845Z,24.80
2017-12-16T15:03:17.855Z,24.80
2017-12-16T15:05:54.832Z,23.50
2017-12-16T15:08:24.796Z,23.50
2017-12-16T15:10:55.959Z,24.00
2017-12-16T15:13:25.192Z,23.90
2017-12-16T15:15:56.480Z,24.20
2017-12-16T15:18:27.151Z,24.70
2017-12-16T15:21:17.692Z,24.50
2017-12-16T15:23:47.119Z,24.40
2017-12-16T15:26:17.131Z,24.70
2017-12-16T15:28:48.205Z,25.00
2017-12-16T15:31:17.649Z,25.20
2017-12-16T15:33:50.182Z,26.50
2017-12-16T15:36:20.945Z,26.50
2017-12-16T15:38:51.598Z,27.10
2017-12-16T15:41:23.289Z,27.60
2017-12-16T15:44:04.499Z,27.60
2017-12-16T15:46:34.918Z,27.70
2017-12-16T15:49:04.089Z,27.60
2017-12-16T15:51:40.102Z,28.10
2017-12-16T15:54:09.658Z,28.50
2017-12-16T15:56:38.864Z,29.40
2017-12-16T15:59:08.104Z,29.80
2017-12-16T16:01:36.688Z,29.80
2017-12-16T16:04:05.945Z,30.30
2017-12-16T16:06:34.438Z,30.30
2017-12-16T16:09:02.887Z,30.70
2017-12-16T16:11:31.550Z,31.10
2017-12-16T16:14:01.429Z,31.10
2017-12-16T16:16:29.915Z,32.00
2017-12-16T16:18:58.630Z,32.70
2017-12-16T16:21:27.009Z,32.90
2017-12-16T16:23:56.029Z,33.10
2017-12-16T16:26:25.473Z,34.40
2017-12-16T16:28:54.675Z,33.90
2017-12-16T16:31:23.155Z,34.30
2017-12-16T16:33:51.839Z,34.90
2017-12-16T16:36:20.420Z,35.50
2017-12-16T16:38:49.008Z,35.90
2017-12-16T16:41:18.203Z,36.30
2017-12-16T16:43:46.643Z,36.30
2017-12-16T16:46:16.310Z,37.20
2017-12-16T16:48:46.597Z,38.00
2017-12-16T16:51:15.148Z,38.00
2017-12-16T16:53:43.526Z,38.50
2017-12-16T16:56:15.538Z,39.80
2017-12-16T16:58:44.944Z,40.90
2017-12-16T17:01:14.978Z,40.80
2017-12-16T17:03:43.621Z,41.40
2017-12-16T17:06:12.126Z,42.00
2017-12-16T17:08:42.138Z,42.50
2017-12-16T17:11:22.291Z,42.90
2017-12-16T17:13:50.834Z,43.10
2017-12-16T17:16:21.100Z,43.60
2017-12-16T17:18:49.578Z,43.60
2017-12-16T17:21:18.325Z,43.90
2017-12-16T17:23:47.569Z,44.40
2017-12-16T17:26:16.119Z,44.50
2017-12-16T17:28:45.997Z,45.10
2017-12-16T17:31:15.848Z,45.50
2017-12-16T17:33:52.055Z,45.30
2017-12-16T17:36:27.656Z,45.20
2017-12-16T17:38:56.516Z,45.30
2017-12-16T17:41:26.194Z,45.60
2017-12-16T17:43:56.715Z,45.80
2017-12-16T17:46:25.254Z,46.10
2017-12-16T17:48:54.606Z,46.40
2017-12-16T17:51:24.033Z,46.40
2017-12-16T17:53:53.243Z,46.40
2017-12-16T17:56:22.000Z,46.60
2017-12-16T17:58:51.624Z,47.00
2017-12-16T18:01:20.948Z,46.80
2017-12-16T18:03:49.738Z,46.80
2017-12-16T18:06:19.299Z,47.00
2017-12-16T18:08:49.178Z,47.00
2017-12-16T18:11:18.833Z,47.20
2017-12-16T18:13:48.422Z,47.00
2017-12-16T18:16:17.793Z,47.00
2017-12-16T18:18:48.358Z,46.80
2017-12-16T18:21:23.896Z,46.70
2017-12-16T18:24:02.468Z,46.60
2017-12-16T18:26:38.575Z,46.70
2017-12-16T18:29:11.998Z,47.00
2017-12-16T18:31:45.437Z,47.90
2017-12-16T18:34:18.400Z,47.90
2017-12-16T18:36:48.864Z,48.00
2017-12-16T18:39:21.901Z,48.60
2017-12-16T18:41:59.695Z,48.60
2017-12-16T18:44:32.189Z,49.10
2017-12-16T18:47:09.362Z,49.50
2017-12-16T18:49:38.121Z,50.20
2017-12-16T18:52:07.538Z,50.80
2017-12-16T18:54:36.324Z,50.60
2017-12-16T18:57:05.950Z,50.80
2017-12-16T18:59:35.005Z,51.00
2017-12-16T19:02:04.726Z,51.20
2017-12-16T19:04:42.377Z,52.60
2017-12-16T19:07:18.307Z,52.90
2017-12-16T19:09:47.073Z,53.40
2017-12-16T19:12:17.094Z,53.50
2017-12-16T19:14:46.469Z,53.30
2017-12-16T19:17:15.004Z,53.30
2017-12-16T19:19:43.601Z,53.50
2017-12-16T19:22:24.909Z,53.30
2017-12-16T19:24:55.317Z,53.60
2017-12-16T19:27:24.957Z,53.90
2017-12-16T19:29:55.259Z,53.90
2017-12-16T19:32:23.915Z,54.20
2017-12-16T19:34:52.352Z,53.90
2017-12-16T19:37:20.774Z,53.80
2017-12-16T19:39:49.208Z,53.30
2017-12-16T19:42:17.614Z,53.70
2017-12-16T19:44:46.030Z,53.50
2017-12-16T19:47:14.481Z,54.30
2017-12-16T19:49:49.071Z,54.60
2017-12-16T19:52:17.887Z,54.60
2017-12-16T19:54:47.782Z,55.20
2017-12-16T19:57:17.316Z,55.40
2017-12-16T19:59:47.535Z,55.40
2017-12-16T20:02:18.454Z,55.70
2017-12-16T20:04:54.286Z,55.70
2017-12-16T20:07:22.968Z,55.80
2017-12-16T20:09:52.515Z,55.20
2017-12-16T20:12:24.189Z,54.60
2017-12-16T20:14:59.343Z,54.50
2017-12-16T20:17:29.470Z,54.20
2017-12-16T20:20:02.597Z,53.70
2017-12-16T20:22:31.346Z,53.90
2017-12-16T20:24:59.969Z,54.20
2017-12-16T20:27:30.051Z,54.30
2017-12-16T20:29:59.509Z,54.90
2017-12-16T20:32:36.279Z,54.90
2017-12-16T20:35:05.718Z,55.70
2017-12-16T20:37:34.521Z,55.60
2017-12-16T20:40:03.681Z,55.90
2017-12-16T20:42:32.363Z,56.40
2017-12-16T20:45:01.863Z,56.70
2017-12-16T20:47:31.542Z,57.20
2017-12-16T20:50:20.586Z,57.20
2017-12-16T20:52:48.978Z,56.50
2017-12-16T20:55:21.183Z,56.80
2017-12-16T20:57:51.192Z,55.20
2017-12-16T21:00:19.743Z,55.20
2017-12-16T21:02:52.798Z,54.90
2017-12-16T21:05:22.916Z,54.70
2017-12-16T21:07:51.433Z,54.60
2017-12-16T21:10:19.845Z,54.50
2017-12-16T21:12:49.987Z,53.10
2017-12-16T21:15:20.248Z,52.70
2017-12-16T21:18:03.531Z,52.60
2017-12-16T21:20:32.662Z,51.50
2017-12-16T21:23:01.257Z,51.40
2017-12-16T21:25:31.207Z,50.90
2017-12-16T21:27:59.756Z,51.40
2017-12-16T21:30:28.150Z,52.10
2017-12-16T21:32:56.570Z,52.30
2017-12-16T21:35:26.066Z,51.50
2017-12-16T21:37:54.616Z,51.50
2017-12-16T21:40:32.409Z,52.00
2017-12-16T21:43:01.025Z,51.90
2017-12-16T21:45:31.216Z,52.20
2017-12-16T21:48:00.421Z,52.20
2017-12-16T21:50:28.951Z,52.50
2017-12-16T21:52:59.790Z,53.00
2017-12-16T21:55:29.350Z,53.00
2017-12-16T21:57:57.860Z,53.10
2017-12-16T22:00:27.148Z,53.60
2017-12-16T22:02:55.854Z,53.50
2017-12-16T22:05:40.602Z,52.70
2017-12-16T22:08:09.909Z,52.60
2017-12-16T22:10:39.102Z,52.70
2017-12-16T22:13:09.021Z,52.40
2017-12-16T22:15:38.303Z,51.10
2017-12-16T22:18:06.741Z,51.20
2017-12-16T22:20:35.231Z,49.50
2017-12-16T22:23:11.159Z,49.60
2017-12-16T22:25:40.697Z,49.50
2017-12-16T22:28:09.312Z,49.50
2017-12-16T22:30:39.526Z,49.90
2017-12-16T22:33:08.079Z,49.80
2017-12-16T22:35:44.678Z,50.60
2017-12-16T22:38:13.035Z,50.30
2017-12-16T22:40:41.545Z,50.40
2017-12-16T22:43:10.088Z,50.70
2017-12-16T22:45:51.674Z,51.10
2017-12-16T22:48:20.360Z,51.10
2017-12-16T22:50:48.784Z,50.70
2017-12-16T22:53:18.862Z,50.90
2017-12-16T22:55:47.541Z,50.80
2017-12-16T22:58:19.749Z,50.50
2017-12-16T23:00:49.937Z,50.40
2017-12-16T23:03:18.522Z,50.30
2017-12-16T23:05:47.001Z,47.90
2017-12-16T23:08:15.479Z,42.40
2017-12-16T23:10:44.060Z,41.70
2017-12-16T23:13:12.748Z,39.70
2017-12-16T23:15:41.332Z,38.70
2017-12-16T23:18:09.848Z,38.10
2017-12-16T23:20:39.314Z,37.60
2017-12-16T23:23:07.769Z,37.60
2017-12-16T23:25:37.075Z,36.20
2017-12-16T23:28:06.444Z,36.30
2017-12-16T23:30:35.008Z,36.20
2017-12-16T23:33:03.562Z,36.10
2017-12-16T23:35:37.782Z,35.60
2017-12-16T23:38:06.563Z,35.00
2017-12-16T23:40:35.164Z,35.50
2017-12-16T23:43:03.730Z,35.10
2017-12-16T23:45:32.341Z,35.00
2017-12-16T23:48:00.790Z,35.10
2017-12-16T23:50:29.584Z,35.40
2017-12-16T23:52:58.577Z,35.20
2017-12-16T23:55:27.167Z,35.00
2017-12-16T23:57:55.641Z,34.90
